createdAt,value
2022-07-29T00:01:08.627Z,101962.22
2022-07-29T00:04:22.573Z,101965.78
2022-07-29T00:07:26.144Z,101957.75
2022-07-29T00:10:29.104Z,101962.22
2022-07-29T00:13:33.596Z,101958.69
2022-07-29T00:16:37.167Z,101958.69
2022-07-29T00:19:41.948Z,101967.56
2022-07-29T00:22:48.411Z,101963.19
2022-07-29T00:25:51.290Z,101964.03
2022-07-29T00:29:17.092Z,101957.84
2022-07-29T00:32:18.395Z,101960.50
2022-07-29T00:35:38.900Z,101973.84
2022-07-29T00:38:45.213Z,101971.19
2022-07-29T00:41:48.142Z,101969.44
2022-07-29T00:44:52.583Z,101966.75
2022-07-29T00:47:55.552Z,101969.44
2022-07-29T00:51:00.861Z,101969.44
2022-07-29T00:54:03.970Z,101959.63
2022-07-29T00:57:08.470Z,101956.06
2022-07-29T01:00:16.476Z,101946.34
2022-07-29T01:03:19.305Z,101940.03
2022-07-29T01:06:22.430Z,101941.00
2022-07-29T01:09:40.797Z,101940.13
2022-07-29T01:12:51.147Z,101937.44
2022-07-29T01:16:00.755Z,101945.50
2022-07-29T01:19:15.084Z,101944.56
2022-07-29T01:22:43.833Z,101939.25
2022-07-29T01:26:25.251Z,101929.47
2022-07-29T01:29:36.155Z,101925.94
2022-07-29T01:32:45.315Z,101928.63
2022-07-29T01:35:48.795Z,101924.19
2022-07-29T01:39:00.016Z,101923.38
2022-07-29T01:42:12.114Z,101925.13
2022-07-29T01:45:19.399Z,101916.25
2022-07-29T01:48:25.604Z,101924.25
2022-07-29T01:51:33.741Z,101908.25
2022-07-29T01:54:43.782Z,101909.97
2022-07-29T01:57:51.584Z,101909.13
2022-07-29T02:00:58.130Z,101906.47
2022-07-29T02:04:04.302Z,101908.25
2022-07-29T02:07:12.822Z,101898.47
2022-07-29T02:10:18.541Z,101884.28
2022-07-29T02:13:25.542Z,101869.09
2022-07-29T02:16:32.891Z,101861.16
2022-07-29T02:19:38.921Z,101860.25
2022-07-29T02:22:43.108Z,101854.09
2022-07-29T02:25:46.500Z,101849.59
2022-07-29T02:28:52.001Z,101846.91
2022-07-29T02:31:59.048Z,101841.56
2022-07-29T02:35:04.140Z,101847.88
2022-07-29T02:38:25.273Z,101854.94
2022-07-29T02:41:32.983Z,101851.44
2022-07-29T02:44:36.453Z,101844.38
2022-07-29T02:47:44.751Z,101856.78
2022-07-29T02:50:53.950Z,101851.44
2022-07-29T02:53:59.317Z,101863.06
2022-07-29T02:57:08.345Z,101871.09
2022-07-29T03:00:13.238Z,101875.56
2022-07-29T03:03:19.336Z,101880.00
2022-07-29T03:06:37.435Z,101876.47
2022-07-29T03:09:42.758Z,101880.00
2022-07-29T03:12:46.336Z,101870.28
2022-07-29T03:15:49.849Z,101883.63
2022-07-29T03:18:55.215Z,101875.63
2022-07-29T03:21:59.184Z,101872.00
2022-07-29T03:25:10.206Z,101873.78
2022-07-29T03:28:13.184Z,101878.28
2022-07-29T03:31:16.199Z,101872.94
2022-07-29T03:34:20.679Z,101880.09
2022-07-29T03:37:26.528Z,101877.41
2022-07-29T03:40:35.702Z,101872.13
2022-07-29T03:43:49.407Z,101873.06
2022-07-29T03:46:56.265Z,101873.06
2022-07-29T03:50:07.073Z,101868.66
2022-07-29T03:53:14.021Z,101863.31
2022-07-29T03:56:19.022Z,101865.03
2022-07-29T03:59:23.173Z,101854.44
2022-07-29T04:02:30.506Z,101848.22
2022-07-29T04:05:35.263Z,101852.63
2022-07-29T04:08:38.275Z,101863.31
2022-07-29T04:11:57.016Z,101851.75
2022-07-29T04:15:06.167Z,101853.53
2022-07-29T04:18:09.015Z,101840.19
2022-07-29T04:21:13.314Z,101847.34
2022-07-29T04:24:17.169Z,101850.94
2022-07-29T04:27:20.573Z,101845.59
2022-07-29T04:30:24.123Z,101847.41
2022-07-29T04:33:27.141Z,101842.97
2022-07-29T04:36:31.550Z,101847.44
2022-07-29T04:39:34.523Z,101841.22
2022-07-29T04:42:42.009Z,101843.88
2022-07-29T04:45:49.952Z,101851.91
2022-07-29T04:48:52.900Z,101843.88
2022-07-29T04:51:57.417Z,101849.22
2022-07-29T04:55:00.441Z,101853.66
2022-07-29T04:58:03.425Z,101861.66
2022-07-29T05:01:06.476Z,101858.13
2022-07-29T05:04:09.388Z,101866.13
2022-07-29T05:07:13.726Z,101865.25
2022-07-29T05:10:16.735Z,101861.66
2022-07-29T05:13:19.607Z,101859.03
2022-07-29T05:16:22.708Z,101871.50
2022-07-29T05:19:25.717Z,101865.31
2022-07-29T05:22:29.928Z,101866.16
2022-07-29T05:25:43.503Z,101871.50
2022-07-29T05:28:47.727Z,101860.81
2022-07-29T05:31:52.000Z,101866.16
2022-07-29T05:34:54.976Z,101864.38
2022-07-29T05:37:59.299Z,101863.44
2022-07-29T05:41:02.329Z,101857.22
2022-07-29T05:44:05.386Z,101854.56
2022-07-29T05:47:08.544Z,101857.22
2022-07-29T05:50:11.533Z,101848.34
2022-07-29T05:53:19.131Z,101855.47
2022-07-29T05:56:24.317Z,101850.13
2022-07-29T05:59:30.503Z,101843.94
2022-07-29T06:02:33.915Z,101842.19
2022-07-29T06:05:36.920Z,101839.53
2022-07-29T06:08:41.950Z,101842.19
2022-07-29T06:11:45.951Z,101833.38
2022-07-29T06:14:53.654Z,101835.16
2022-07-29T06:18:00.578Z,101837.84
2022-07-29T06:21:10.103Z,101830.78
2022-07-29T06:24:15.369Z,101838.78
2022-07-29T06:27:18.626Z,101838.84
2022-07-29T06:30:21.758Z,101837.03
2022-07-29T06:33:24.601Z,101836.13
2022-07-29T06:36:27.587Z,101845.03
2022-07-29T06:39:32.341Z,101850.38
2022-07-29T06:42:35.198Z,101849.53
2022-07-29T06:45:39.536Z,101854.00
2022-07-29T06:48:44.311Z,101859.31
2022-07-29T06:51:47.523Z,101855.78
2022-07-29T06:54:52.175Z,101856.66
2022-07-29T06:57:55.070Z,101854.91
2022-07-29T07:00:58.459Z,101860.22
2022-07-29T07:04:01.434Z,101851.31
2022-07-29T07:07:04.376Z,101849.53
2022-07-29T07:10:09.903Z,101853.03
2022-07-29T07:13:13.363Z,101853.03
2022-07-29T07:16:16.869Z,101855.72
2022-07-29T07:19:20.187Z,101851.25
2022-07-29T07:22:23.116Z,101847.66
2022-07-29T07:25:27.621Z,101851.19
2022-07-29T07:28:30.611Z,101839.66
2022-07-29T07:31:33.803Z,101837.84
2022-07-29T07:34:38.836Z,101835.25
2022-07-29T07:37:42.555Z,101842.38
2022-07-29T07:40:47.399Z,101840.50
2022-07-29T07:43:50.509Z,101847.66
2022-07-29T07:46:53.462Z,101856.53
2022-07-29T07:49:57.715Z,101846.72
2022-07-29T07:53:02.998Z,101850.34
2022-07-29T07:56:12.400Z,101845.75
2022-07-29T07:59:15.825Z,101847.53
2022-07-29T08:02:19.591Z,101852.81
2022-07-29T08:05:22.576Z,101840.31
2022-07-29T08:08:25.644Z,101844.72
2022-07-29T08:11:30.001Z,101849.16
2022-07-29T08:14:38.164Z,101841.16
2022-07-29T08:17:41.131Z,101850.81
2022-07-29T08:20:44.079Z,101848.94
2022-07-29T08:23:57.625Z,101849.81
2022-07-29T08:27:09.822Z,101843.56
2022-07-29T08:30:24.474Z,101848.84
2022-07-29T08:33:27.424Z,101839.88
2022-07-29T08:36:30.413Z,101839.84
2022-07-29T08:39:33.359Z,101839.78
2022-07-29T08:42:38.024Z,101832.56
2022-07-29T08:45:48.010Z,101839.69
2022-07-29T08:48:51.676Z,101835.19
2022-07-29T08:51:55.893Z,101827.16
2022-07-29T08:54:59.129Z,101823.59
2022-07-29T08:58:03.963Z,101825.38
2022-07-29T09:01:12.441Z,101825.38
2022-07-29T09:04:18.243Z,101827.13
2022-07-29T09:07:21.363Z,101827.97
2022-07-29T09:10:24.825Z,101823.50
2022-07-29T09:13:29.277Z,101825.31
2022-07-29T09:16:53.088Z,101827.97
2022-07-29T09:20:10.722Z,101820.84
2022-07-29T09:23:23.173Z,101805.69
2022-07-29T09:26:30.668Z,101810.13
2022-07-29T09:29:36.377Z,101809.97
2022-07-29T09:32:58.241Z,101795.72
2022-07-29T09:36:02.255Z,101794.75
2022-07-29T09:39:07.073Z,101786.63
2022-07-29T09:42:10.061Z,101781.31
2022-07-29T09:45:14.921Z,101786.50
2022-07-29T09:48:19.159Z,101785.88
2022-07-29T09:51:28.402Z,101784.09
2022-07-29T09:54:41.356Z,101784.09
2022-07-29T09:57:45.011Z,101782.16
2022-07-29T10:00:50.896Z,101783.03
2022-07-29T10:03:54.796Z,101788.25
2022-07-29T10:07:04.401Z,101780.16
2022-07-29T10:10:08.762Z,101773.84
2022-07-29T10:13:16.529Z,101775.44
2022-07-29T10:16:21.111Z,101774.47
2022-07-29T10:19:25.058Z,101778.84
2022-07-29T10:22:52.087Z,101775.19
2022-07-29T10:25:51.916Z,101765.38
2022-07-29T10:28:54.842Z,101768.94
2022-07-29T10:32:11.939Z,101767.97
2022-07-29T10:35:29.195Z,101763.50
2022-07-29T10:38:48.026Z,101770.66
2022-07-29T10:42:08.168Z,101763.50
2022-07-29T10:45:12.297Z,101767.09
2022-07-29T10:48:16.813Z,101760.91
2022-07-29T10:51:22.231Z,101759.97
2022-07-29T10:54:56.315Z,101751.06
2022-07-29T10:58:14.522Z,101767.06
2022-07-29T11:01:37.492Z,101766.19
2022-07-29T11:05:06.443Z,101767.09
2022-07-29T11:08:26.295Z,101758.25
2022-07-29T11:11:36.616Z,101758.16
2022-07-29T11:15:01.436Z,101747.47
2022-07-29T11:18:15.110Z,101746.50
2022-07-29T11:21:54.106Z,101748.22
2022-07-29T11:28:53.497Z,101740.00
2022-07-29T11:32:10.948Z,101740.00
2022-07-29T11:35:37.977Z,101738.13
2022-07-29T11:38:44.129Z,101730.06
2022-07-29T11:41:47.272Z,101731.81
2022-07-29T11:45:04.341Z,101731.69
2022-07-29T11:51:53.246Z,101722.63
2022-07-29T11:55:00.728Z,101720.72
2022-07-29T11:58:13.143Z,101712.69
2022-07-29T12:01:19.575Z,101726.06
2022-07-29T12:04:24.511Z,101722.44
2022-07-29T12:07:01.291Z,101742.75
2022-07-29T12:07:03.568Z,101724.50
2022-07-29T12:07:34.732Z,101714.50
2022-07-29T12:10:40.355Z,101722.44
2022-07-29T12:13:43.256Z,101709.16
2022-07-29T12:16:46.338Z,101711.75
2022-07-29T12:19:49.283Z,101705.47
2022-07-29T12:22:55.489Z,101705.44
2022-07-29T12:26:00.850Z,101702.56
2022-07-29T12:29:11.335Z,101704.31
2022-07-29T12:32:19.664Z,101689.22
2022-07-29T12:35:23.412Z,101699.78
2022-07-29T12:38:27.229Z,101696.16
2022-07-29T12:41:32.114Z,101691.59
2022-07-29T12:44:49.155Z,101689.72
2022-07-29T12:47:55.216Z,101690.59
2022-07-29T12:50:59.837Z,101694.97
2022-07-29T12:54:09.056Z,101693.88
2022-07-29T12:57:19.980Z,101688.38
2022-07-29T13:00:25.506Z,101686.44
2022-07-29T13:03:28.478Z,101688.13
2022-07-29T13:06:36.756Z,101681.75
2022-07-29T13:09:41.062Z,101687.91
2022-07-29T13:13:11.155Z,101675.28
2022-07-29T13:16:14.093Z,101677.78
2022-07-29T13:19:17.106Z,101670.56
2022-07-29T13:22:22.339Z,101657.97
2022-07-29T13:25:30.131Z,101658.81
2022-07-29T13:28:34.649Z,101654.31
2022-07-29T13:31:37.982Z,101647.16
2022-07-29T13:34:41.659Z,101652.59
2022-07-29T13:37:44.656Z,101652.50
2022-07-29T13:40:47.653Z,101655.97
2022-07-29T13:43:52.339Z,101649.63
2022-07-29T13:46:55.316Z,101651.28
2022-07-29T13:49:58.223Z,101644.09
2022-07-29T13:53:01.437Z,101646.56
2022-07-29T13:56:06.743Z,101642.09
2022-07-29T13:59:11.134Z,101645.56
2022-07-29T14:02:15.562Z,101637.44
2022-07-29T14:05:18.769Z,101636.63
2022-07-29T14:08:21.763Z,101632.19
2022-07-29T14:11:24.637Z,101634.16
2022-07-29T14:14:28.935Z,101628.94
2022-07-29T14:17:31.872Z,101628.13
2022-07-29T14:20:34.822Z,101624.59
2022-07-29T14:23:38.342Z,101630.72
2022-07-29T14:26:46.275Z,101623.56
2022-07-29T14:29:50.813Z,101625.31
2022-07-29T14:32:53.750Z,101623.22
2022-07-29T14:35:56.684Z,101617.94
2022-07-29T14:39:04.901Z,101616.22
2022-07-29T14:42:08.908Z,101613.63
2022-07-29T14:45:13.653Z,101618.19
2022-07-29T14:48:22.550Z,101621.69
2022-07-29T14:51:25.622Z,101615.56
2022-07-29T14:54:35.715Z,101614.63
2022-07-29T14:57:39.093Z,101607.53
2022-07-29T15:00:43.484Z,101609.28
2022-07-29T15:03:46.763Z,101611.88
2022-07-29T15:06:50.171Z,101611.00
2022-07-29T15:09:56.826Z,101606.44
2022-07-29T15:13:02.503Z,101611.56
2022-07-29T15:16:07.434Z,101602.66
2022-07-29T15:19:10.531Z,101604.34
2022-07-29T15:22:13.448Z,101598.16
2022-07-29T15:25:16.355Z,101604.94
2022-07-29T15:28:19.268Z,101597.72
2022-07-29T15:31:23.895Z,101600.56
2022-07-29T15:34:26.831Z,101596.19
2022-07-29T15:37:48.877Z,101592.72
2022-07-29T15:40:52.375Z,101591.03
2022-07-29T15:43:55.367Z,101597.31
2022-07-29T15:47:06.069Z,101591.13
2022-07-29T15:50:15.672Z,101585.81
2022-07-29T15:53:18.598Z,101580.47
2022-07-29T15:56:21.837Z,101585.56
2022-07-29T15:59:24.880Z,101588.06
2022-07-29T16:02:29.147Z,101592.63
2022-07-29T16:05:32.233Z,101585.56
2022-07-29T16:08:35.103Z,101587.44
2022-07-29T16:11:39.154Z,101578.59
2022-07-29T16:14:42.138Z,101577.66
2022-07-29T16:17:46.434Z,101591.03
2022-07-29T16:20:49.355Z,101582.22
2022-07-29T16:23:52.891Z,101583.09
2022-07-29T16:26:56.125Z,101581.25
2022-07-29T16:29:59.282Z,101571.53
2022-07-29T16:33:08.389Z,101571.53
2022-07-29T16:36:11.473Z,101567.97
2022-07-29T16:39:16.590Z,101567.75
2022-07-29T16:42:36.983Z,101561.53
2022-07-29T16:45:45.352Z,101554.38
2022-07-29T16:48:50.796Z,101549.97
2022-07-29T16:51:54.879Z,101555.38
2022-07-29T16:54:57.771Z,101559.84
2022-07-29T16:58:01.160Z,101561.59
2022-07-29T17:01:04.262Z,101558.84
2022-07-29T17:04:08.721Z,101564.16
2022-07-29T17:07:11.786Z,101563.38
2022-07-29T17:10:14.837Z,101555.34
2022-07-29T17:13:17.835Z,101553.59
2022-07-29T17:16:24.585Z,101542.88
2022-07-29T17:19:29.453Z,101541.13
2022-07-29T17:22:32.374Z,101557.19
2022-07-29T17:25:35.752Z,101544.63
2022-07-29T17:28:39.051Z,101555.34
2022-07-29T17:31:41.973Z,101553.59
2022-07-29T17:34:46.303Z,101544.63
2022-07-29T17:37:49.202Z,101553.50
2022-07-29T17:40:52.105Z,101551.69
2022-07-29T17:43:55.858Z,101551.56
2022-07-29T17:46:58.895Z,101548.88
2022-07-29T17:50:03.579Z,101547.06
2022-07-29T17:53:15.510Z,101562.25
2022-07-29T17:56:19.642Z,101555.16
2022-07-29T17:59:22.577Z,101560.50
2022-07-29T18:02:25.619Z,101555.16
2022-07-29T18:05:32.679Z,101560.50
2022-07-29T18:08:36.080Z,101554.28
2022-07-29T18:11:39.056Z,101554.28
2022-07-29T18:14:47.255Z,101558.84
2022-07-29T18:17:56.952Z,101564.19
2022-07-29T18:21:02.217Z,101554.47
2022-07-29T18:24:05.353Z,101566.03
2022-07-29T18:27:08.398Z,101564.28
2022-07-29T18:30:11.632Z,101570.50
2022-07-29T18:33:24.263Z,101575.00
2022-07-29T18:36:28.631Z,101575.88
2022-07-29T18:39:31.580Z,101576.75
2022-07-29T18:42:34.823Z,101575.88
2022-07-29T18:45:37.776Z,101580.34
2022-07-29T18:48:42.705Z,101579.56
2022-07-29T18:51:46.988Z,101581.34
2022-07-29T18:54:49.854Z,101584.09
2022-07-29T18:57:54.987Z,101590.34
2022-07-29T19:00:59.729Z,101583.22
2022-07-29T19:04:02.792Z,101588.66
2022-07-29T19:07:07.085Z,101588.66
2022-07-29T19:10:11.231Z,101586.91
2022-07-29T19:13:14.152Z,101593.22
2022-07-29T19:16:18.371Z,101598.63
2022-07-29T19:19:21.322Z,101596.81
2022-07-29T19:22:26.127Z,101600.47
2022-07-29T19:25:29.058Z,101600.47
2022-07-29T19:28:33.465Z,101607.59
2022-07-29T19:31:36.587Z,101605.00
2022-07-29T19:34:39.906Z,101608.63
2022-07-29T19:37:54.429Z,101613.03
2022-07-29T19:40:57.549Z,101615.75
2022-07-29T19:44:00.562Z,101614.91
2022-07-29T19:47:04.085Z,101614.13
2022-07-29T19:50:08.131Z,101615.94
2022-07-29T19:53:12.535Z,101619.53
2022-07-29T19:56:15.409Z,101620.41
2022-07-29T19:59:18.253Z,101617.81
2022-07-29T20:02:27.663Z,101623.16
2022-07-29T20:05:30.866Z,101627.63
2022-07-29T20:08:35.235Z,101627.63
2022-07-29T20:11:39.649Z,101620.47
2022-07-29T20:14:42.653Z,101625.88
2022-07-29T20:17:45.902Z,101616.06
2022-07-29T20:20:50.550Z,101625.88
2022-07-29T20:23:56.749Z,101624.16
2022-07-29T20:26:59.981Z,101628.63
2022-07-29T20:30:03.692Z,101633.09
2022-07-29T20:33:06.777Z,101629.50
2022-07-29T20:36:09.792Z,101617.06
2022-07-29T20:39:14.068Z,101621.56
2022-07-29T20:42:17.429Z,101626.03
2022-07-29T20:45:20.982Z,101631.47
2022-07-29T20:48:23.999Z,101635.94
2022-07-29T20:51:26.973Z,101629.63
2022-07-29T20:54:31.372Z,101635.00
2022-07-29T20:57:39.067Z,101631.47
2022-07-29T21:00:42.917Z,101633.28
2022-07-29T21:03:45.910Z,101640.41
2022-07-29T21:06:49.395Z,101635.94
2022-07-29T21:09:53.725Z,101639.53
2022-07-29T21:12:56.661Z,101635.16
2022-07-29T21:16:04.268Z,101632.47
2022-07-29T21:19:08.522Z,101630.72
2022-07-29T21:22:11.530Z,101640.50
2022-07-29T21:25:15.802Z,101642.38
2022-07-29T21:28:35.666Z,101637.03
2022-07-29T21:31:38.582Z,101637.06
2022-07-29T21:34:41.496Z,101637.16
2022-07-29T21:37:44.466Z,101644.25
2022-07-29T21:40:51.113Z,101638.03
2022-07-29T21:43:54.633Z,101642.50
2022-07-29T21:47:01.549Z,101647.84
2022-07-29T21:50:05.202Z,101646.13
2022-07-29T21:53:08.148Z,101654.16
2022-07-29T21:56:15.447Z,101648.81
2022-07-29T21:59:21.076Z,101652.41
2022-07-29T22:02:23.974Z,101656.03
2022-07-29T22:05:26.883Z,101650.69
2022-07-29T22:08:29.792Z,101651.59
2022-07-29T22:11:36.323Z,101660.59
2022-07-29T22:14:39.244Z,101651.59
2022-07-29T22:17:43.115Z,101652.56
2022-07-29T22:20:46.012Z,101649.91
2022-07-29T22:23:49.021Z,101645.47
2022-07-29T22:26:53.281Z,101641.91
2022-07-29T22:29:56.319Z,101634.78
2022-07-29T22:33:00.465Z,101641.91
2022-07-29T22:36:03.336Z,101644.59
2022-07-29T22:39:06.265Z,101645.47
2022-07-29T22:42:10.861Z,101645.47
2022-07-29T22:45:13.964Z,101635.69
2022-07-29T22:48:17.026Z,101640.19
2022-07-29T22:51:20.038Z,101637.56
2022-07-29T22:54:23.008Z,101626.88
2022-07-29T22:57:27.386Z,101633.09
2022-07-29T23:00:30.413Z,101626.88
2022-07-29T23:03:33.402Z,101631.38
2022-07-29T23:06:36.335Z,101621.53
2022-07-29T23:09:39.287Z,101619.81
2022-07-29T23:12:43.542Z,101619.81
2022-07-29T23:15:46.496Z,101614.47
2022-07-29T23:18:49.397Z,101613.59
2022-07-29T23:21:54.974Z,101614.47
2022-07-29T23:24:57.822Z,101616.25
2022-07-29T23:28:02.472Z,101610.03
2022-07-29T23:31:05.390Z,101610.03
2022-07-29T23:34:08.331Z,101611.88
2022-07-29T23:37:11.231Z,101610.03
2022-07-29T23:40:15.040Z,101605.66
2022-07-29T23:43:19.273Z,101602.09
2022-07-29T23:49:27.063Z,101607.53
2022-07-29T23:52:29.971Z,101604.84
2022-07-29T23:58:43.440Z,101604.84
